sensor_id;sensor_type;location;lat;lon;timestamp;pressure;altitude;pressure_sealevel;temperature;humidity
71299;BME280;59083;47.974;21.722;2023-02-20T00:02:36;100985.69;;;3.61;61.02
71299;BME280;59083;47.974;21.722;2023-02-20T00:05:38;100998.66;;;3.53;62.09
71299;BME280;59083;47.974;21.722;2023-02-20T00:08:39;101000.38;;;3.43;62.55
71299;BME280;59083;47.974;21.722;2023-02-20T00:11:41;101003.78;;;3.34;63.17
71299;BME280;59083;47.974;21.722;2023-02-20T00:14:42;101010.63;;;3.25;64.08
71299;BME280;59083;47.974;21.722;2023-02-20T00:17:44;101017.22;;;3.20;64.50
71299;BME280;59083;47.974;21.722;2023-02-20T00:20:48;101033.78;;;3.11;65.57
71299;BME280;59083;47.974;21.722;2023-02-20T00:23:50;101026.63;;;3.02;66.55
71299;BME280;59083;47.974;21.722;2023-02-20T00:26:52;101039.66;;;2.92;66.51
71299;BME280;59083;47.974;21.722;2023-02-20T00:29:53;101045.41;;;2.86;67.04
71299;BME280;59083;47.974;21.722;2023-02-20T00:32:55;101047.56;;;2.81;67.94
71299;BME280;59083;47.974;21.722;2023-02-20T00:35:58;101056.41;;;2.80;68.07
71299;BME280;59083;47.974;21.722;2023-02-20T00:38:59;101057.25;;;2.80;69.25
71299;BME280;59083;47.974;21.722;2023-02-20T00:42:00;101061.94;;;2.77;69.67
71299;BME280;59083;47.974;21.722;2023-02-20T00:45:02;101055.59;;;2.68;70.01
71299;BME280;59083;47.974;21.722;2023-02-20T00:48:04;101046.84;;;2.68;70.30
71299;BME280;59083;47.974;21.722;2023-02-20T00:51:05;101052.12;;;2.57;70.55
71299;BME280;59083;47.974;21.722;2023-02-20T00:54:07;101055.25;;;2.51;70.93
71299;BME280;59083;47.974;21.722;2023-02-20T00:57:08;101050.81;;;2.51;71.53
71299;BME280;59083;47.974;21.722;2023-02-20T01:00:17;101041.97;;;2.52;72.13
71299;BME280;59083;47.974;21.722;2023-02-20T01:03:18;101047.69;;;2.46;72.39
71299;BME280;59083;47.974;21.722;2023-02-20T01:06:20;101045.81;;;2.48;71.02
71299;BME280;59083;47.974;21.722;2023-02-20T01:09:21;101038.84;;;2.47;71.18
71299;BME280;59083;47.974;21.722;2023-02-20T01:12:22;101039.34;;;2.41;71.97
71299;BME280;59083;47.974;21.722;2023-02-20T01:15:23;101047.84;;;2.33;72.03
71299;BME280;59083;47.974;21.722;2023-02-20T01:18:25;101040.28;;;2.29;72.11
71299;BME280;59083;47.974;21.722;2023-02-20T01:21:26;101042.06;;;2.28;72.90
71299;BME280;59083;47.974;21.722;2023-02-20T01:24:27;101050.09;;;2.27;72.72
71299;BME280;59083;47.974;21.722;2023-02-20T01:27:28;101057.50;;;2.22;73.68
71299;BME280;59083;47.974;21.722;2023-02-20T01:30:30;101055.81;;;2.21;73.89
71299;BME280;59083;47.974;21.722;2023-02-20T01:33:31;101067.03;;;2.23;73.44
71299;BME280;59083;47.974;21.722;2023-02-20T01:36:32;101068.97;;;2.21;74.06
71299;BME280;59083;47.974;21.722;2023-02-20T01:39:36;101068.50;;;2.27;74.03
71299;BME280;59083;47.974;21.722;2023-02-20T01:42:37;101071.63;;;2.32;73.90
71299;BME280;59083;47.974;21.722;2023-02-20T01:45:39;101066.84;;;2.37;73.40
71299;BME280;59083;47.974;21.722;2023-02-20T01:48:40;101072.81;;;2.39;73.46
71299;BME280;59083;47.974;21.722;2023-02-20T01:51:46;101069.47;;;2.37;72.29
71299;BME280;59083;47.974;21.722;2023-02-20T01:54:58;101070.78;;;2.42;71.87
71299;BME280;59083;47.974;21.722;2023-02-20T01:58:30;101071.16;;;2.49;70.58
71299;BME280;59083;47.974;21.722;2023-02-20T02:01:35;101073.31;;;2.55;71.08
71299;BME280;59083;47.974;21.722;2023-02-20T02:04:37;101077.37;;;2.59;70.34
71299;BME280;59083;47.974;21.722;2023-02-20T02:07:40;101086.69;;;2.52;69.52
71299;BME280;59083;47.974;21.722;2023-02-20T02:11:05;101070.19;;;2.50;70.90
71299;BME280;59083;47.974;21.722;2023-02-20T02:14:07;101072.09;;;2.48;70.48
71299;BME280;59083;47.974;21.722;2023-02-20T02:27:49;101072.09;;;2.48;69.84
71299;BME280;59083;47.974;21.722;2023-02-20T02:34:25;101067.56;;;2.39;71.29
71299;BME280;59083;47.974;21.722;2023-02-20T02:40:51;101065.25;;;2.34;70.23
71299;BME280;59083;47.974;21.722;2023-02-20T02:47:17;101065.25;;;2.23;71.76
71299;BME280;59083;47.974;21.722;2023-02-20T02:50:30;101069.19;;;2.29;72.45
71299;BME280;59083;47.974;21.722;2023-02-20T02:53:32;101066.34;;;2.32;73.10
71299;BME280;59083;47.974;21.722;2023-02-20T02:56:39;101081.41;;;2.41;72.91
71299;BME280;59083;47.974;21.722;2023-02-20T02:59:42;101073.31;;;2.44;73.88
71299;BME280;59083;47.974;21.722;2023-02-20T03:06:07;101077.00;;;2.41;73.67
71299;BME280;59083;47.974;21.722;2023-02-20T03:09:13;101075.09;;;2.43;73.90
71299;BME280;59083;47.974;21.722;2023-02-20T03:12:17;101076.88;;;2.32;75.05
71299;BME280;59083;47.974;21.722;2023-02-20T03:15:30;101091.91;;;2.30;75.41
71299;BME280;59083;47.974;21.722;2023-02-20T03:18:38;101103.84;;;2.23;76.04
71299;BME280;59083;47.974;21.722;2023-02-20T03:21:43;101097.75;;;2.22;76.50
71299;BME280;59083;47.974;21.722;2023-02-20T03:24:49;101108.50;;;2.19;76.63
71299;BME280;59083;47.974;21.722;2023-02-20T03:28:00;101112.72;;;2.22;76.58
71299;BME280;59083;47.974;21.722;2023-02-20T03:31:07;101118.19;;;2.19;77.87
71299;BME280;59083;47.974;21.722;2023-02-20T03:34:18;101122.47;;;2.08;78.08
71299;BME280;59083;47.974;21.722;2023-02-20T03:37:42;101136.94;;;2.14;77.10
71299;BME280;59083;47.974;21.722;2023-02-20T03:41:04;101135.63;;;2.20;75.80
71299;BME280;59083;47.974;21.722;2023-02-20T03:44:26;101137.06;;;2.24;76.16
71299;BME280;59083;47.974;21.722;2023-02-20T03:47:30;101137.78;;;2.15;76.79
71299;BME280;59083;47.974;21.722;2023-02-20T03:50:32;101142.78;;;2.18;76.23
71299;BME280;59083;47.974;21.722;2023-02-20T03:53:52;101144.72;;;2.16;75.62
71299;BME280;59083;47.974;21.722;2023-02-20T03:57:02;101150.88;;;2.03;76.61
71299;BME280;59083;47.974;21.722;2023-02-20T04:00:08;101148.00;;;2.06;75.75
71299;BME280;59083;47.974;21.722;2023-02-20T04:03:19;101153.78;;;2.12;75.18
71299;BME280;59083;47.974;21.722;2023-02-20T04:06:24;101152.13;;;2.11;75.32
71299;BME280;59083;47.974;21.722;2023-02-20T04:09:29;101142.72;;;1.95;74.45
71299;BME280;59083;47.974;21.722;2023-02-20T04:12:37;101141.78;;;1.96;75.44
71299;BME280;59083;47.974;21.722;2023-02-20T04:15:41;101131.22;;;1.85;75.04
71299;BME280;59083;47.974;21.722;2023-02-20T04:18:44;101135.47;;;1.75;74.87
71299;BME280;59083;47.974;21.722;2023-02-20T04:21:50;101137.16;;;1.76;74.85
71299;BME280;59083;47.974;21.722;2023-02-20T04:25:12;101129.50;;;1.73;75.32
71299;BME280;59083;47.974;21.722;2023-02-20T04:28:16;101138.56;;;1.69;75.42
71299;BME280;59083;47.974;21.722;2023-02-20T04:31:19;101132.81;;;1.64;75.02
71299;BME280;59083;47.974;21.722;2023-02-20T04:34:21;101128.50;;;1.63;75.41
71299;BME280;59083;47.974;21.722;2023-02-20T04:37:23;101140.03;;;1.60;74.67
71299;BME280;59083;47.974;21.722;2023-02-20T04:40:25;101143.97;;;1.55;74.76
71299;BME280;59083;47.974;21.722;2023-02-20T04:43:26;101140.62;;;1.53;75.07
71299;BME280;59083;47.974;21.722;2023-02-20T04:46:28;101142.81;;;1.59;75.21
71299;BME280;59083;47.974;21.722;2023-02-20T04:49:30;101150.69;;;1.59;75.13
71299;BME280;59083;47.974;21.722;2023-02-20T04:52:32;101142.28;;;1.54;74.85
71299;BME280;59083;47.974;21.722;2023-02-20T04:55:35;101149.00;;;1.58;74.89
71299;BME280;59083;47.974;21.722;2023-02-20T04:58:36;101145.69;;;1.67;75.40
71299;BME280;59083;47.974;21.722;2023-02-20T05:01:38;101146.00;;;1.75;75.82
71299;BME280;59083;47.974;21.722;2023-02-20T05:04:39;101133.56;;;1.77;75.62
71299;BME280;59083;47.974;21.722;2023-02-20T05:07:41;101141.78;;;1.73;75.26
71299;BME280;59083;47.974;21.722;2023-02-20T05:10:42;101155.56;;;1.76;75.52
71299;BME280;59083;47.974;21.722;2023-02-20T05:13:43;101146.19;;;1.72;76.01
71299;BME280;59083;47.974;21.722;2023-02-20T05:16:45;101153.62;;;1.78;76.24
71299;BME280;59083;47.974;21.722;2023-02-20T05:19:47;101153.91;;;1.86;76.38
71299;BME280;59083;47.974;21.722;2023-02-20T05:22:48;101155.37;;;1.90;76.37
71299;BME280;59083;47.974;21.722;2023-02-20T05:25:49;101163.25;;;1.90;76.74
71299;BME280;59083;47.974;21.722;2023-02-20T05:28:51;101151.34;;;1.97;77.27
71299;BME280;59083;47.974;21.722;2023-02-20T05:31:52;101153.72;;;2.00;77.60
71299;BME280;59083;47.974;21.722;2023-02-20T05:34:54;101157.81;;;2.04;78.10
71299;BME280;59083;47.974;21.722;2023-02-20T05:37:55;101164.72;;;2.05;78.70
71299;BME280;59083;47.974;21.722;2023-02-20T05:40:56;101153.78;;;2.12;79.10
71299;BME280;59083;47.974;21.722;2023-02-20T05:43:58;101146.50;;;2.15;79.13
71299;BME280;59083;47.974;21.722;2023-02-20T05:47:00;101153.78;;;2.12;78.82
71299;BME280;59083;47.974;21.722;2023-02-20T05:50:02;101157.50;;;2.20;79.23
71299;BME280;59083;47.974;21.722;2023-02-20T05:53:03;101167.34;;;2.29;79.08
71299;BME280;59083;47.974;21.722;2023-02-20T05:56:04;101162.00;;;2.42;78.92
71299;BME280;59083;47.974;21.722;2023-02-20T05:59:05;101163.09;;;2.51;78.21
71299;BME280;59083;47.974;21.722;2023-02-20T06:02:07;101174.72;;;2.59;77.79
71299;BME280;59083;47.974;21.722;2023-02-20T06:05:08;101176.88;;;2.76;77.83
71299;BME280;59083;47.974;21.722;2023-02-20T06:08:09;101179.28;;;2.90;76.73
71299;BME280;59083;47.974;21.722;2023-02-20T06:11:12;101180.25;;;3.01;76.11
71299;BME280;59083;47.974;21.722;2023-02-20T06:14:14;101170.44;;;3.14;75.78
71299;BME280;59083;47.974;21.722;2023-02-20T06:17:19;101179.53;;;3.32;76.54
71299;BME280;59083;47.974;21.722;2023-02-20T06:20:21;101173.66;;;3.40;76.26
71299;BME280;59083;47.974;21.722;2023-02-20T06:23:22;101175.19;;;3.42;76.29
71299;BME280;59083;47.974;21.722;2023-02-20T06:26:24;101188.59;;;3.50;76.17
71299;BME280;59083;47.974;21.722;2023-02-20T06:29:26;101193.75;;;3.63;76.22
71299;BME280;59083;47.974;21.722;2023-02-20T06:32:28;101200.06;;;3.71;76.94
71299;BME280;59083;47.974;21.722;2023-02-20T06:35:30;101207.75;;;3.74;77.23
71299;BME280;59083;47.974;21.722;2023-02-20T06:38:31;101199.06;;;3.84;77.44
71299;BME280;59083;47.974;21.722;2023-02-20T06:41:32;101189.72;;;3.91;79.30
71299;BME280;59083;47.974;21.722;2023-02-20T06:44:33;101193.53;;;3.98;78.98
71299;BME280;59083;47.974;21.722;2023-02-20T06:47:35;101176.94;;;4.07;78.75
71299;BME280;59083;47.974;21.722;2023-02-20T06:50:36;101190.59;;;4.12;78.36
71299;BME280;59083;47.974;21.722;2023-02-20T06:53:37;101194.22;;;4.00;79.34
71299;BME280;59083;47.974;21.722;2023-02-20T06:56:38;101193.69;;;4.17;79.16
71299;BME280;59083;47.974;21.722;2023-02-20T06:59:39;101197.94;;;4.29;78.95
71299;BME280;59083;47.974;21.722;2023-02-20T07:02:42;101210.97;;;4.42;78.92
71299;BME280;59083;47.974;21.722;2023-02-20T07:05:44;101212.13;;;4.70;78.55
71299;BME280;59083;47.974;21.722;2023-02-20T07:08:45;101210.47;;;4.69;80.34
71299;BME280;59083;47.974;21.722;2023-02-20T07:11:46;101212.19;;;4.58;81.77
71299;BME280;59083;47.974;21.722;2023-02-20T07:14:50;101210.59;;;4.46;82.99
71299;BME280;59083;47.974;21.722;2023-02-20T07:17:51;101217.88;;;4.22;83.94
71299;BME280;59083;47.974;21.722;2023-02-20T07:20:53;101215.47;;;4.30;83.93
71299;BME280;59083;47.974;21.722;2023-02-20T07:23:55;101195.78;;;4.34;84.14
71299;BME280;59083;47.974;21.722;2023-02-20T07:26:56;101210.53;;;4.57;83.21
71299;BME280;59083;47.974;21.722;2023-02-20T07:29:57;101212.66;;;4.64;82.99
71299;BME280;59083;47.974;21.722;2023-02-20T07:32:59;101219.03;;;4.61;82.49
71299;BME280;59083;47.974;21.722;2023-02-20T07:36:00;101219.50;;;4.66;82.14
71299;BME280;59083;47.974;21.722;2023-02-20T07:39:02;101194.38;;;4.72;81.63
71299;BME280;59083;47.974;21.722;2023-02-20T07:42:06;101198.38;;;4.96;81.22
71299;BME280;59083;47.974;21.722;2023-02-20T07:45:10;101195.94;;;5.05;80.17
71299;BME280;59083;47.974;21.722;2023-02-20T07:48:11;101185.25;;;5.06;79.57
71299;BME280;59083;47.974;21.722;2023-02-20T07:51:13;101174.78;;;4.95;79.68
71299;BME280;59083;47.974;21.722;2023-02-20T07:54:14;101197.41;;;5.18;78.99
71299;BME280;59083;47.974;21.722;2023-02-20T07:57:15;101200.47;;;5.23;77.98
71299;BME280;59083;47.974;21.722;2023-02-20T08:00:18;101201.31;;;5.24;77.88
71299;BME280;59083;47.974;21.722;2023-02-20T08:03:20;101192.72;;;5.31;76.18
71299;BME280;59083;47.974;21.722;2023-02-20T08:06:21;101191.19;;;5.29;75.02
71299;BME280;59083;47.974;21.722;2023-02-20T08:09:22;101192.87;;;5.39;73.77
71299;BME280;59083;47.974;21.722;2023-02-20T08:12:23;101198.31;;;5.38;72.87
71299;BME280;59083;47.974;21.722;2023-02-20T08:15:25;101199.75;;;5.52;72.70
71299;BME280;59083;47.974;21.722;2023-02-20T08:18:26;101188.63;;;5.58;71.89
71299;BME280;59083;47.974;21.722;2023-02-20T08:21:27;101185.87;;;5.69;70.45
71299;BME280;59083;47.974;21.722;2023-02-20T08:24:28;101190.88;;;5.72;68.28
71299;BME280;59083;47.974;21.722;2023-02-20T08:27:31;101177.28;;;5.86;69.13
71299;BME280;59083;47.974;21.722;2023-02-20T08:30:32;101178.12;;;6.15;67.93
71299;BME280;59083;47.974;21.722;2023-02-20T08:33:34;101174.22;;;6.58;67.51
71299;BME280;59083;47.974;21.722;2023-02-20T08:36:35;101168.31;;;6.83;65.82
71299;BME280;59083;47.974;21.722;2023-02-20T08:39:36;101156.16;;;7.18;66.80
71299;BME280;59083;47.974;21.722;2023-02-20T08:42:37;101151.81;;;7.26;65.05
71299;BME280;59083;47.974;21.722;2023-02-20T08:45:39;101139.91;;;7.40;62.26
71299;BME280;59083;47.974;21.722;2023-02-20T08:48:40;101145.22;;;7.30;62.48
71299;BME280;59083;47.974;21.722;2023-02-20T08:51:41;101145.06;;;7.59;62.69
71299;BME280;59083;47.974;21.722;2023-02-20T08:54:46;101141.34;;;7.52;63.76
71299;BME280;59083;47.974;21.722;2023-02-20T08:57:48;101145.22;;;7.75;63.10
71299;BME280;59083;47.974;21.722;2023-02-20T09:00:49;101138.63;;;7.62;62.40
71299;BME280;59083;47.974;21.722;2023-02-20T09:03:51;101134.56;;;7.67;63.06
71299;BME280;59083;47.974;21.722;2023-02-20T09:06:52;101130.59;;;7.54;62.26
71299;BME280;59083;47.974;21.722;2023-02-20T09:09:53;101108.88;;;7.40;62.27
71299;BME280;59083;47.974;21.722;2023-02-20T09:12:56;101105.50;;;7.48;62.28
71299;BME280;59083;47.974;21.722;2023-02-20T09:15:57;101105.81;;;7.45;63.53
71299;BME280;59083;47.974;21.722;2023-02-20T09:18:58;101103.84;;;7.20;64.32
71299;BME280;59083;47.974;21.722;2023-02-20T09:22:01;101117.66;;;7.23;64.85
71299;BME280;59083;47.974;21.722;2023-02-20T09:25:03;101121.41;;;6.93;66.19
71299;BME280;59083;47.974;21.722;2023-02-20T09:28:05;101117.50;;;7.25;66.19
71299;BME280;59083;47.974;21.722;2023-02-20T09:31:06;101102.56;;;7.24;66.29
71299;BME280;59083;47.974;21.722;2023-02-20T09:34:08;101091.88;;;6.88;65.34
71299;BME280;59083;47.974;21.722;2023-02-20T09:37:09;101094.72;;;6.77;65.29
71299;BME280;59083;47.974;21.722;2023-02-20T09:40:12;101094.41;;;6.80;66.02
71299;BME280;59083;47.974;21.722;2023-02-20T09:43:29;101095.97;;;6.73;65.96
71299;BME280;59083;47.974;21.722;2023-02-20T09:46:33;101100.25;;;6.84;66.35
71299;BME280;59083;47.974;21.722;2023-02-20T09:49:34;101094.75;;;6.95;66.71
71299;BME280;59083;47.974;21.722;2023-02-20T09:52:39;101107.84;;;7.06;66.43
71299;BME280;59083;47.974;21.722;2023-02-20T09:55:43;101101.31;;;7.00;67.80
71299;BME280;59083;47.974;21.722;2023-02-20T09:59:09;101098.25;;;6.95;67.06
71299;BME280;59083;47.974;21.722;2023-02-20T10:02:23;101082.06;;;7.26;67.98
71299;BME280;59083;47.974;21.722;2023-02-20T10:05:28;101077.69;;;7.34;66.58
71299;BME280;59083;47.974;21.722;2023-02-20T10:08:29;101068.81;;;7.26;67.13
71299;BME280;59083;47.974;21.722;2023-02-20T10:15:00;101056.75;;;7.31;67.12
71299;BME280;59083;47.974;21.722;2023-02-20T10:25:34;101037.28;;;7.76;66.28
71299;BME280;59083;47.974;21.722;2023-02-20T10:28:38;101015.47;;;7.64;66.34
71299;BME280;59083;47.974;21.722;2023-02-20T10:35:01;101037.63;;;7.99;63.99
71299;BME280;59083;47.974;21.722;2023-02-20T10:38:07;101035.41;;;8.12;63.73
71299;BME280;59083;47.974;21.722;2023-02-20T10:44:31;101037.09;;;8.13;61.98
71299;BME280;59083;47.974;21.722;2023-02-20T10:47:41;101026.72;;;8.02;62.46
71299;BME280;59083;47.974;21.722;2023-02-20T10:50:49;101009.25;;;8.17;62.47
71299;BME280;59083;47.974;21.722;2023-02-20T10:54:03;100990.19;;;8.21;61.88
71299;BME280;59083;47.974;21.722;2023-02-20T10:57:18;100997.31;;;7.95;62.17
71299;BME280;59083;47.974;21.722;2023-02-20T11:00:30;100996.16;;;7.98;61.14
71299;BME280;59083;47.974;21.722;2023-02-20T11:03:40;100994.09;;;7.83;61.16
71299;BME280;59083;47.974;21.722;2023-02-20T11:06:46;100975.59;;;7.92;60.73
71299;BME280;59083;47.974;21.722;2023-02-20T11:09:50;100970.50;;;7.37;60.90
71299;BME280;59083;47.974;21.722;2023-02-20T11:12:55;100968.56;;;7.65;61.15
71299;BME280;59083;47.974;21.722;2023-02-20T11:15:59;100960.75;;;7.63;60.56
71299;BME280;59083;47.974;21.722;2023-02-20T11:19:05;100956.50;;;7.70;60.67
71299;BME280;59083;47.974;21.722;2023-02-20T11:22:07;100939.72;;;7.44;60.73
71299;BME280;59083;47.974;21.722;2023-02-20T11:28:25;100954.19;;;8.19;59.47
71299;BME280;59083;47.974;21.722;2023-02-20T11:31:27;100950.19;;;8.49;58.72
71299;BME280;59083;47.974;21.722;2023-02-20T11:34:30;100951.00;;;8.41;58.08
71299;BME280;59083;47.974;21.722;2023-02-20T11:37:31;100946.38;;;8.51;58.98
71299;BME280;59083;47.974;21.722;2023-02-20T11:40:33;100942.09;;;8.66;57.84
71299;BME280;59083;47.974;21.722;2023-02-20T11:43:36;100940.28;;;8.67;56.25
71299;BME280;59083;47.974;21.722;2023-02-20T11:46:38;100941.41;;;8.48;55.41
71299;BME280;59083;47.974;21.722;2023-02-20T11:49:39;100918.84;;;8.60;56.25
71299;BME280;59083;47.974;21.722;2023-02-20T11:53:01;100934.56;;;9.04;56.45
71299;BME280;59083;47.974;21.722;2023-02-20T11:56:06;100921.28;;;9.20;56.22
71299;BME280;59083;47.974;21.722;2023-02-20T12:02:26;100908.41;;;8.25;58.69
71299;BME280;59083;47.974;21.722;2023-02-20T12:05:40;100916.25;;;8.01;59.05
71299;BME280;59083;47.974;21.722;2023-02-20T12:08:50;100914.16;;;8.46;57.87
71299;BME280;59083;47.974;21.722;2023-02-20T12:11:55;100905.69;;;8.43;58.01
71299;BME280;59083;47.974;21.722;2023-02-20T12:14:57;100898.94;;;8.64;58.43
71299;BME280;59083;47.974;21.722;2023-02-20T12:21:23;100881.94;;;8.41;59.64
71299;BME280;59083;47.974;21.722;2023-02-20T12:45:06;100844.34;;;9.02;60.82
71299;BME280;59083;47.974;21.722;2023-02-20T12:54:41;100811.09;;;9.06;61.81
71299;BME280;59083;47.974;21.722;2023-02-20T12:58:09;100822.91;;;9.12;62.35
71299;BME280;59083;47.974;21.722;2023-02-20T13:01:16;100825.41;;;9.13;62.11
71299;BME280;59083;47.974;21.722;2023-02-20T13:04:27;100818.09;;;9.07;61.86
71299;BME280;59083;47.974;21.722;2023-02-20T13:11:10;100815.63;;;8.98;63.15
71299;BME280;59083;47.974;21.722;2023-02-20T13:17:28;100799.97;;;8.95;63.84
71299;BME280;59083;47.974;21.722;2023-02-20T13:20:34;100796.69;;;8.77;64.66
71299;BME280;59083;47.974;21.722;2023-02-20T13:23:39;100789.87;;;8.82;65.00
71299;BME280;59083;47.974;21.722;2023-02-20T13:29:59;100799.31;;;8.52;67.12
71299;BME280;59083;47.974;21.722;2023-02-20T13:33:12;100787.91;;;8.26;68.83
71299;BME280;59083;47.974;21.722;2023-02-20T13:36:38;100785.00;;;8.45;69.42
71299;BME280;59083;47.974;21.722;2023-02-20T13:39:41;100760.75;;;8.32;69.63
71299;BME280;59083;47.974;21.722;2023-02-20T13:42:42;100765.69;;;8.27;70.04
71299;BME280;59083;47.974;21.722;2023-02-20T13:45:44;100779.19;;;8.34;70.39
71299;BME280;59083;47.974;21.722;2023-02-20T13:48:48;100795.28;;;8.40;70.70
71299;BME280;59083;47.974;21.722;2023-02-20T13:51:50;100793.91;;;8.20;71.41
71299;BME280;59083;47.974;21.722;2023-02-20T13:54:51;100795.84;;;8.02;72.11
71299;BME280;59083;47.974;21.722;2023-02-20T13:58:02;100772.59;;;8.04;72.84
71299;BME280;59083;47.974;21.722;2023-02-20T14:01:04;100775.19;;;7.87;73.51
71299;BME280;59083;47.974;21.722;2023-02-20T14:04:05;100769.53;;;7.82;73.62
71299;BME280;59083;47.974;21.722;2023-02-20T14:07:07;100764.28;;;7.91;73.71
71299;BME280;59083;47.974;21.722;2023-02-20T14:10:24;100771.91;;;7.94;74.36
71299;BME280;59083;47.974;21.722;2023-02-20T14:13:26;100760.56;;;7.75;74.72
71299;BME280;59083;47.974;21.722;2023-02-20T14:16:34;100754.06;;;7.70;75.40
71299;BME280;59083;47.974;21.722;2023-02-20T14:19:41;100741.34;;;7.81;75.03
71299;BME280;59083;47.974;21.722;2023-02-20T14:22:43;100732.41;;;7.82;75.39
71299;BME280;59083;47.974;21.722;2023-02-20T14:26:00;100738.06;;;7.87;75.34
71299;BME280;59083;47.974;21.722;2023-02-20T14:29:19;100729.44;;;7.85;75.86
71299;BME280;59083;47.974;21.722;2023-02-20T14:32:20;100746.66;;;7.81;76.15
71299;BME280;59083;47.974;21.722;2023-02-20T14:41:54;100723.75;;;7.72;77.44
71299;BME280;59083;47.974;21.722;2023-02-20T14:45:03;100718.41;;;7.64;78.04
71299;BME280;59083;47.974;21.722;2023-02-20T14:48:21;100704.78;;;7.59;78.49
71299;BME280;59083;47.974;21.722;2023-02-20T14:51:24;100719.88;;;7.59;78.64
71299;BME280;59083;47.974;21.722;2023-02-20T14:54:25;100698.19;;;7.63;78.31
71299;BME280;59083;47.974;21.722;2023-02-20T14:57:30;100669.53;;;7.67;78.81
71299;BME280;59083;47.974;21.722;2023-02-20T15:00:34;100652.44;;;7.69;78.96
71299;BME280;59083;47.974;21.722;2023-02-20T15:03:35;100671.37;;;7.74;79.07
71299;BME280;59083;47.974;21.722;2023-02-20T15:06:39;100655.78;;;7.71;79.75
71299;BME280;59083;47.974;21.722;2023-02-20T15:09:44;100669.38;;;7.76;79.05
71299;BME280;59083;47.974;21.722;2023-02-20T15:12:46;100665.09;;;7.83;79.31
71299;BME280;59083;47.974;21.722;2023-02-20T15:15:51;100644.47;;;7.69;79.87
71299;BME280;59083;47.974;21.722;2023-02-20T15:18:54;100604.06;;;7.67;80.30
71299;BME280;59083;47.974;21.722;2023-02-20T15:21:57;100578.16;;;7.69;80.40
71299;BME280;59083;47.974;21.722;2023-02-20T15:25:11;100598.72;;;7.59;81.28
71299;BME280;59083;47.974;21.722;2023-02-20T15:31:21;100601.03;;;7.54;81.73
71299;BME280;59083;47.974;21.722;2023-02-20T15:34:36;100578.69;;;7.57;81.83
71299;BME280;59083;47.974;21.722;2023-02-20T15:37:38;100576.19;;;7.55;81.65
71299;BME280;59083;47.974;21.722;2023-02-20T15:40:39;100579.84;;;7.62;81.34
71299;BME280;59083;47.974;21.722;2023-02-20T15:43:41;100584.81;;;7.57;81.67
71299;BME280;59083;47.974;21.722;2023-02-20T15:46:42;100581.78;;;7.52;82.58
71299;BME280;59083;47.974;21.722;2023-02-20T15:49:43;100579.31;;;7.51;83.29
71299;BME280;59083;47.974;21.722;2023-02-20T15:52:45;100571.88;;;7.46;83.60
71299;BME280;59083;47.974;21.722;2023-02-20T15:55:49;100560.25;;;7.39;84.27
71299;BME280;59083;47.974;21.722;2023-02-20T15:58:51;100552.41;;;7.29;85.14
71299;BME280;59083;47.974;21.722;2023-02-20T16:01:52;100560.88;;;7.33;85.46
71299;BME280;59083;47.974;21.722;2023-02-20T16:04:54;100562.56;;;7.34;85.55
71299;BME280;59083;47.974;21.722;2023-02-20T16:07:55;100551.28;;;7.32;85.67
71299;BME280;59083;47.974;21.722;2023-02-20T16:10:56;100563.53;;;7.33;86.20
71299;BME280;59083;47.974;21.722;2023-02-20T16:13:59;100546.66;;;7.34;86.26
71299;BME280;59083;47.974;21.722;2023-02-20T16:17:01;100548.28;;;7.35;86.04
71299;BME280;59083;47.974;21.722;2023-02-20T16:20:13;100531.72;;;7.33;86.41
71299;BME280;59083;47.974;21.722;2023-02-20T16:23:15;100542.50;;;7.31;86.71
71299;BME280;59083;47.974;21.722;2023-02-20T16:26:17;100546.13;;;7.30;86.93
71299;BME280;59083;47.974;21.722;2023-02-20T16:29:34;100545.28;;;7.30;87.48
71299;BME280;59083;47.974;21.722;2023-02-20T16:32:36;100548.78;;;7.30;87.27
71299;BME280;59083;47.974;21.722;2023-02-20T16:35:37;100557.75;;;7.37;86.80
71299;BME280;59083;47.974;21.722;2023-02-20T16:38:38;100543.00;;;7.43;87.51
71299;BME280;59083;47.974;21.722;2023-02-20T16:41:40;100543.03;;;7.51;86.40
71299;BME280;59083;47.974;21.722;2023-02-20T16:44:44;100549.97;;;7.52;87.06
71299;BME280;59083;47.974;21.722;2023-02-20T16:47:51;100558.41;;;7.47;86.77
71299;BME280;59083;47.974;21.722;2023-02-20T16:50:53;100536.56;;;7.54;86.80
71299;BME280;59083;47.974;21.722;2023-02-20T16:53:54;100545.69;;;7.59;86.66
71299;BME280;59083;47.974;21.722;2023-02-20T16:56:55;100537.38;;;7.54;87.17
71299;BME280;59083;47.974;21.722;2023-02-20T16:59:58;100522.66;;;7.52;87.28
71299;BME280;59083;47.974;21.722;2023-02-20T17:03:00;100507.53;;;7.52;87.56
71299;BME280;59083;47.974;21.722;2023-02-20T17:06:01;100496.94;;;7.52;88.05
71299;BME280;59083;47.974;21.722;2023-02-20T17:09:02;100488.66;;;7.55;87.71
71299;BME280;59083;47.974;21.722;2023-02-20T17:12:04;100485.34;;;7.61;87.37
71299;BME280;59083;47.974;21.722;2023-02-20T17:15:06;100468.78;;;7.59;87.86
71299;BME280;59083;47.974;21.722;2023-02-20T17:18:08;100476.41;;;7.54;88.63
71299;BME280;59083;47.974;21.722;2023-02-20T17:21:09;100464.47;;;7.58;88.34
71299;BME280;59083;47.974;21.722;2023-02-20T17:24:11;100449.88;;;7.54;88.66
71299;BME280;59083;47.974;21.722;2023-02-20T17:27:12;100435.78;;;7.54;88.49
71299;BME280;59083;47.974;21.722;2023-02-20T17:30:15;100441.28;;;7.68;87.96
71299;BME280;59083;47.974;21.722;2023-02-20T17:33:17;100442.44;;;7.74;87.29
71299;BME280;59083;47.974;21.722;2023-02-20T17:36:18;100442.56;;;7.80;86.84
71299;BME280;59083;47.974;21.722;2023-02-20T17:39:21;100448.03;;;7.87;86.36
71299;BME280;59083;47.974;21.722;2023-02-20T17:42:24;100445.88;;;7.91;85.91